createdAt,value
2023-03-06T00:00:45.951Z,100381.81
2023-03-06T00:03:12.438Z,100334.13
2023-03-06T00:05:39.280Z,100380.19
2023-03-06T00:08:06.431Z,100382.66
2023-03-06T00:10:33.282Z,100371.16
2023-03-06T00:13:06.394Z,100372.00
2023-03-06T00:15:32.910Z,100305.97
2023-03-06T00:17:59.913Z,100365.94
2023-03-06T00:20:27.101Z,100352.34
2023-03-06T00:22:55.951Z,100358.50
2023-03-06T00:25:23.317Z,100331.94
2023-03-06T00:27:50.086Z,100312.84
2023-03-06T00:30:20.361Z,100332.31
2023-03-06T00:32:47.328Z,100366.50
2023-03-06T00:35:14.571Z,100346.97
2023-03-06T00:37:41.579Z,100364.59
2023-03-06T00:40:11.859Z,100342.88
2023-03-06T00:42:38.388Z,100318.78
2023-03-06T00:45:05.326Z,100371.63
2023-03-06T00:47:32.068Z,100360.56
2023-03-06T00:49:58.725Z,100369.81
2023-03-06T00:52:25.220Z,100368.78
2023-03-06T00:54:51.823Z,100315.19
2023-03-06T00:57:18.597Z,100384.34
2023-03-06T00:59:46.062Z,100370.38
2023-03-06T01:02:12.606Z,100297.84
2023-03-06T01:04:39.703Z,100370.19
2023-03-06T01:07:06.269Z,100372.97
2023-03-06T01:09:32.839Z,100370.03
2023-03-06T01:11:59.373Z,100377.22
2023-03-06T01:14:26.426Z,100358.94
2023-03-06T01:16:52.928Z,100380.59
2023-03-06T01:19:19.414Z,100370.56
2023-03-06T01:21:46.078Z,100282.25
2023-03-06T01:24:12.587Z,100205.38
2023-03-06T01:26:39.205Z,100370.59
2023-03-06T01:29:06.455Z,100355.09
2023-03-06T01:31:33.409Z,100360.81
2023-03-06T01:34:00.149Z,100328.94
2023-03-06T01:36:26.580Z,100339.63
2023-03-06T01:38:53.250Z,100320.03
2023-03-06T01:41:21.283Z,100354.63
2023-03-06T01:43:49.136Z,100362.47
2023-03-06T01:46:44.468Z,100364.44
2023-03-06T01:49:21.829Z,100365.59
2023-03-06T01:51:52.609Z,100352.59
2023-03-06T01:54:33.148Z,100360.47
2023-03-06T01:57:05.657Z,100359.31
2023-03-06T01:59:34.765Z,100356.16
2023-03-06T02:02:03.583Z,100337.59
2023-03-06T02:04:31.636Z,100285.19
2023-03-06T02:07:00.544Z,100334.22
2023-03-06T02:09:30.273Z,100297.28
2023-03-06T02:11:57.108Z,100316.22
2023-03-06T02:14:24.072Z,100334.75
2023-03-06T02:16:51.355Z,100332.50
2023-03-06T02:19:29.095Z,100331.19
2023-03-06T02:21:55.858Z,100322.41
2023-03-06T02:24:33.148Z,100267.19
2023-03-06T02:27:02.824Z,100333.72
2023-03-06T02:29:30.845Z,100316.13
2023-03-06T02:31:57.774Z,100331.66
2023-03-06T02:34:24.223Z,100325.81
2023-03-06T02:36:54.008Z,100231.50
2023-03-06T02:39:25.798Z,100316.66
2023-03-06T02:41:52.480Z,100307.38
2023-03-06T02:44:19.096Z,100316.56
2023-03-06T02:46:45.664Z,100310.56
2023-03-06T02:49:12.111Z,100311.59
2023-03-06T02:51:38.660Z,100315.31
2023-03-06T02:54:05.167Z,100308.47
2023-03-06T02:56:31.625Z,100303.81
2023-03-06T02:58:58.405Z,100292.06
2023-03-06T03:01:24.942Z,100258.56
2023-03-06T03:03:51.510Z,100290.03
2023-03-06T03:06:18.052Z,100284.97
2023-03-06T03:08:44.728Z,100290.72
2023-03-06T03:11:12.247Z,100281.34
2023-03-06T03:13:39.034Z,100269.69
2023-03-06T03:16:08.158Z,100218.44
2023-03-06T03:18:35.584Z,100222.38
2023-03-06T03:21:06.620Z,100222.69
2023-03-06T03:23:33.101Z,100265.97
2023-03-06T03:26:15.151Z,100229.97
2023-03-06T03:28:41.647Z,100184.38
2023-03-06T03:31:09.758Z,100222.16
2023-03-06T03:33:36.843Z,100264.81
2023-03-06T03:36:05.461Z,100248.56
2023-03-06T03:38:32.642Z,100262.91
2023-03-06T03:41:01.055Z,100257.41
2023-03-06T03:43:27.926Z,100261.50
2023-03-06T03:45:54.547Z,100196.66
2023-03-06T03:48:21.033Z,100261.81
2023-03-06T03:50:47.616Z,100237.88
2023-03-06T03:53:14.925Z,100259.22
2023-03-06T03:55:41.456Z,100257.22
2023-03-06T03:58:07.915Z,100261.50
2023-03-06T04:00:34.481Z,100201.69
2023-03-06T04:03:00.963Z,100257.94
2023-03-06T04:05:27.536Z,100263.19
2023-03-06T04:07:53.991Z,100267.75
2023-03-06T04:10:20.841Z,100273.53
2023-03-06T04:12:47.297Z,100268.41
2023-03-06T04:15:13.818Z,100258.69
2023-03-06T04:17:40.359Z,100263.09
2023-03-06T04:20:07.551Z,100243.03
2023-03-06T04:22:34.060Z,100179.25
2023-03-06T04:25:01.122Z,100252.91
2023-03-06T04:27:27.704Z,100170.41
2023-03-06T04:29:56.479Z,100181.81
2023-03-06T04:32:24.227Z,100246.00
2023-03-06T04:34:51.061Z,100246.38
2023-03-06T04:37:23.895Z,100224.75
2023-03-06T04:39:50.812Z,100201.19
2023-03-06T04:42:17.432Z,100222.66
2023-03-06T04:44:44.432Z,100222.00
2023-03-06T04:47:11.365Z,100237.09
2023-03-06T04:49:38.007Z,100234.94
2023-03-06T04:52:05.166Z,100225.97
2023-03-06T04:54:32.278Z,100236.41
2023-03-06T04:56:58.921Z,100232.53
2023-03-06T04:59:25.549Z,100147.63
2023-03-06T05:01:52.146Z,100224.22
2023-03-06T05:04:18.722Z,100198.38
2023-03-06T05:06:45.305Z,100229.72
2023-03-06T05:09:11.840Z,100215.81
2023-03-06T05:11:38.356Z,100225.69
2023-03-06T05:14:04.809Z,100217.16
2023-03-06T05:16:31.589Z,100210.16
2023-03-06T05:18:58.084Z,100180.88
2023-03-06T05:21:24.529Z,100223.84
2023-03-06T05:23:51.033Z,100119.31
2023-03-06T05:26:17.621Z,100223.34
2023-03-06T05:28:44.210Z,100222.66
2023-03-06T05:31:10.799Z,100222.91
2023-03-06T05:33:37.423Z,100222.06
2023-03-06T05:36:04.416Z,100219.56
2023-03-06T05:38:32.407Z,100220.94
2023-03-06T05:40:59.060Z,100216.59
2023-03-06T05:43:25.584Z,100209.13
2023-03-06T05:46:00.263Z,100203.03
2023-03-06T05:48:26.876Z,100204.25
2023-03-06T05:50:59.595Z,100204.59
2023-03-06T05:53:26.952Z,100202.78
2023-03-06T05:56:09.068Z,100179.75
2023-03-06T05:58:36.509Z,100173.75
2023-03-06T06:01:30.328Z,100182.50
2023-03-06T06:03:56.824Z,100177.88
2023-03-06T06:06:23.385Z,100186.59
2023-03-06T06:08:49.962Z,100181.63
2023-03-06T06:11:18.391Z,100174.16
2023-03-06T06:13:44.878Z,100176.72
2023-03-06T06:16:15.821Z,100149.56
2023-03-06T06:18:43.201Z,100165.53
2023-03-06T06:21:11.525Z,100166.84
2023-03-06T06:23:38.073Z,100176.44
2023-03-06T06:26:06.794Z,100176.75
2023-03-06T06:28:35.401Z,100177.06
2023-03-06T06:31:08.457Z,100177.38
2023-03-06T06:33:35.022Z,100185.91
2023-03-06T06:36:01.517Z,100137.31
2023-03-06T06:38:28.100Z,100172.66
2023-03-06T06:41:27.151Z,100176.25
2023-03-06T06:43:41.100Z,100154.75
2023-03-06T06:46:36.472Z,100181.91
2023-03-06T06:48:56.996Z,100132.00
2023-03-06T06:51:23.593Z,100165.38
2023-03-06T06:53:53.379Z,100186.59
2023-03-06T06:56:19.855Z,100186.69
2023-03-06T06:58:46.306Z,100191.34
2023-03-06T07:01:13.800Z,100188.78
2023-03-06T07:03:40.867Z,100192.84
2023-03-06T07:06:07.857Z,100189.63
2023-03-06T07:08:34.925Z,100179.38
2023-03-06T07:11:10.606Z,100202.66
2023-03-06T07:13:37.140Z,100205.09
2023-03-06T07:16:03.960Z,100204.88
2023-03-06T07:18:30.793Z,100189.59
2023-03-06T07:21:00.372Z,100128.00
2023-03-06T07:23:27.869Z,100206.09
2023-03-06T07:25:55.283Z,100197.66
2023-03-06T07:28:21.952Z,100202.75
2023-03-06T07:30:48.567Z,100212.47
2023-03-06T07:33:16.409Z,100163.44
2023-03-06T07:35:43.457Z,100214.56
2023-03-06T07:38:10.265Z,100213.59
2023-03-06T07:40:38.923Z,100213.75
2023-03-06T07:43:18.861Z,100227.16
2023-03-06T07:45:47.055Z,100197.06
2023-03-06T07:48:14.884Z,100224.81
2023-03-06T07:50:42.071Z,100227.41
2023-03-06T07:53:10.826Z,100239.84
2023-03-06T07:55:40.577Z,100223.38
2023-03-06T07:58:07.123Z,100216.81
2023-03-06T08:00:33.592Z,100243.03
2023-03-06T08:03:00.120Z,100234.47
2023-03-06T08:05:26.730Z,100187.34
2023-03-06T08:07:53.338Z,100196.03
2023-03-06T08:10:20.058Z,100168.28
2023-03-06T08:12:46.639Z,100268.16
2023-03-06T08:15:13.301Z,100271.00
2023-03-06T08:17:40.385Z,100277.28
2023-03-06T08:20:08.010Z,100246.94
2023-03-06T08:22:34.889Z,100209.84
2023-03-06T08:25:01.986Z,100237.47
2023-03-06T08:27:28.602Z,100293.44
2023-03-06T08:29:55.058Z,100297.78
2023-03-06T08:32:21.685Z,100235.75
2023-03-06T08:34:48.325Z,100245.78
2023-03-06T08:37:14.818Z,100291.94
2023-03-06T08:39:41.313Z,100311.88
2023-03-06T08:42:09.879Z,100311.66
2023-03-06T08:44:36.708Z,100247.50
2023-03-06T08:47:03.916Z,100310.47
2023-03-06T08:49:30.692Z,100302.09
2023-03-06T08:51:57.311Z,100320.19
2023-03-06T08:54:24.100Z,100266.09
2023-03-06T08:56:50.675Z,100314.84
2023-03-06T08:59:17.191Z,100315.91
2023-03-06T09:01:45.249Z,100274.81
2023-03-06T09:04:11.987Z,100309.44
2023-03-06T09:06:42.320Z,100320.31
2023-03-06T09:09:09.562Z,100318.25
2023-03-06T09:11:36.705Z,100321.81
2023-03-06T09:14:03.602Z,100276.53
2023-03-06T09:16:30.186Z,100327.69
2023-03-06T09:18:57.971Z,100312.63
2023-03-06T09:21:26.245Z,100292.06
2023-03-06T09:23:52.748Z,100324.38
2023-03-06T09:26:19.437Z,100326.69
2023-03-06T09:28:46.367Z,100325.84
2023-03-06T09:31:18.292Z,100324.69
2023-03-06T09:33:45.491Z,100325.94
2023-03-06T09:36:17.678Z,100317.19
2023-03-06T09:38:45.929Z,100327.31
2023-03-06T09:41:41.642Z,100328.53
2023-03-06T09:44:15.922Z,100298.53
2023-03-06T09:47:03.146Z,100324.69
2023-03-06T09:49:51.723Z,100331.66
2023-03-06T09:52:36.654Z,100325.75
2023-03-06T09:55:19.493Z,100328.28
2023-03-06T09:58:01.372Z,100332.03
2023-03-06T10:00:41.935Z,100297.22
2023-03-06T10:03:22.281Z,100306.50
2023-03-06T10:06:07.042Z,100327.69
2023-03-06T10:08:43.854Z,100323.88
2023-03-06T10:11:13.407Z,100320.88
2023-03-06T10:13:46.229Z,100315.25
2023-03-06T10:16:32.678Z,100322.38
2023-03-06T10:19:07.329Z,100316.22
2023-03-06T10:21:54.850Z,100263.81
2023-03-06T10:24:31.995Z,100241.38
2023-03-06T10:27:10.660Z,100316.50
2023-03-06T12:49:12.305Z,100225.50
2023-03-06T12:51:40.312Z,100188.06
